Plant, Arkansas
Current Conditions -  °F | °C
As of 9:53 AM on Friday 31 Oct 2014 (Local Time) from KRUE Reporting Station
Few Clouds Few Clouds  
Wind Chill: 57°   Ceiling: Unl
Heat Index: 57°   Visibility: 10mi
Dew Point: 42°   Wind: 9mph
Humidity: 57%   Direction: 330°NNW
Pressure: 30.25"   Gusts: NA
Location:  35.6269°N, 92.5508°W
Report Text: KRUE 311453Z AUTO 33008KT 10SM FEW040 14/06 A3025 RMK AO2 SLP238 T01390056 51031
Loading
Personal Weather Stations






























Interactive Weather Map
Tropical Storm Tracking
New forecast layout! Learn more

10-Day Weather Forecast

Advertisements
Track Severe Weather on mobile